sensor_id;sensor_type;location;lat;lon;timestamp;temperature;humidity
37446;DHT22;23307;51.136;14.942;2023-12-28T00:00:24;7.60;99.90
37446;DHT22;23307;51.136;14.942;2023-12-28T00:02:50;7.60;99.90
37446;DHT22;23307;51.136;14.942;2023-12-28T00:05:15;7.60;99.90
37446;DHT22;23307;51.136;14.942;2023-12-28T00:07:41;7.60;99.90
37446;DHT22;23307;51.136;14.942;2023-12-28T00:10:07;7.60;99.90
37446;DHT22;23307;51.136;14.942;2023-12-28T00:12:32;7.60;99.90
37446;DHT22;23307;51.136;14.942;2023-12-28T00:14:58;7.60;99.90
37446;DHT22;23307;51.136;14.942;2023-12-28T00:17:23;7.60;99.90
37446;DHT22;23307;51.136;14.942;2023-12-28T00:19:49;7.60;99.90
37446;DHT22;23307;51.136;14.942;2023-12-28T00:22:14;7.70;99.90
37446;DHT22;23307;51.136;14.942;2023-12-28T00:24:40;7.60;99.90
37446;DHT22;23307;51.136;14.942;2023-12-28T00:27:05;7.60;99.90
37446;DHT22;23307;51.136;14.942;2023-12-28T00:29:31;7.60;99.90
37446;DHT22;23307;51.136;14.942;2023-12-28T00:31:57;7.60;99.90
37446;DHT22;23307;51.136;14.942;2023-12-28T00:34:23;7.60;99.90
37446;DHT22;23307;51.136;14.942;2023-12-28T00:36:48;7.60;99.90
37446;DHT22;23307;51.136;14.942;2023-12-28T00:39:13;7.60;99.90
37446;DHT22;23307;51.136;14.942;2023-12-28T00:41:40;7.50;99.90
37446;DHT22;23307;51.136;14.942;2023-12-28T00:44:05;7.50;99.90
37446;DHT22;23307;51.136;14.942;2023-12-28T00:46:35;7.40;99.90
37446;DHT22;23307;51.136;14.942;2023-12-28T00:49:00;7.40;99.90
37446;DHT22;23307;51.136;14.942;2023-12-28T00:51:25;7.40;99.90
37446;DHT22;23307;51.136;14.942;2023-12-28T00:53:51;7.40;99.90
37446;DHT22;23307;51.136;14.942;2023-12-28T00:56:16;7.40;99.90
37446;DHT22;23307;51.136;14.942;2023-12-28T00:58:42;7.30;99.90
37446;DHT22;23307;51.136;14.942;2023-12-28T01:01:09;7.30;99.90
37446;DHT22;23307;51.136;14.942;2023-12-28T01:03:34;7.30;99.90
37446;DHT22;23307;51.136;14.942;2023-12-28T01:06:00;7.30;99.90
37446;DHT22;23307;51.136;14.942;2023-12-28T01:08:25;7.30;99.90
37446;DHT22;23307;51.136;14.942;2023-12-28T01:10:51;7.30;99.90
37446;DHT22;23307;51.136;14.942;2023-12-28T01:13:16;7.30;99.90
37446;DHT22;23307;51.136;14.942;2023-12-28T01:15:42;7.30;99.90
37446;DHT22;23307;51.136;14.942;2023-12-28T01:18:08;7.30;99.90
37446;DHT22;23307;51.136;14.942;2023-12-28T01:20:33;7.40;99.90
37446;DHT22;23307;51.136;14.942;2023-12-28T01:23:00;7.40;99.90
37446;DHT22;23307;51.136;14.942;2023-12-28T01:25:25;7.40;99.90
37446;DHT22;23307;51.136;14.942;2023-12-28T01:27:51;7.40;99.90
37446;DHT22;23307;51.136;14.942;2023-12-28T01:30:16;7.40;99.90
37446;DHT22;23307;51.136;14.942;2023-12-28T01:32:42;7.40;99.90
37446;DHT22;23307;51.136;14.942;2023-12-28T01:35:07;7.40;99.90
37446;DHT22;23307;51.136;14.942;2023-12-28T01:37:33;7.40;99.90
37446;DHT22;23307;51.136;14.942;2023-12-28T01:39:59;7.40;99.90
37446;DHT22;23307;51.136;14.942;2023-12-28T01:42:26;7.40;99.90
37446;DHT22;23307;51.136;14.942;2023-12-28T01:44:51;7.40;99.90
37446;DHT22;23307;51.136;14.942;2023-12-28T01:47:17;7.40;99.90
37446;DHT22;23307;51.136;14.942;2023-12-28T01:49:43;7.50;99.90
37446;DHT22;23307;51.136;14.942;2023-12-28T01:52:09;7.50;99.90
37446;DHT22;23307;51.136;14.942;2023-12-28T01:54:35;7.50;99.90
37446;DHT22;23307;51.136;14.942;2023-12-28T01:57:01;7.50;99.90
37446;DHT22;23307;51.136;14.942;2023-12-28T01:59:28;7.50;99.90
37446;DHT22;23307;51.136;14.942;2023-12-28T02:01:54;7.50;99.90
37446;DHT22;23307;51.136;14.942;2023-12-28T02:04:20;7.50;99.90
37446;DHT22;23307;51.136;14.942;2023-12-28T02:06:52;7.50;99.90
37446;DHT22;23307;51.136;14.942;2023-12-28T02:09:19;7.50;99.90
37446;DHT22;23307;51.136;14.942;2023-12-28T02:11:45;7.40;99.90
37446;DHT22;23307;51.136;14.942;2023-12-28T02:14:10;7.40;99.90
37446;DHT22;23307;51.136;14.942;2023-12-28T02:16:40;7.50;99.90
37446;DHT22;23307;51.136;14.942;2023-12-28T02:19:24;7.40;99.90
37446;DHT22;23307;51.136;14.942;2023-12-28T02:21:52;7.40;99.90
37446;DHT22;23307;51.136;14.942;2023-12-28T02:24:17;7.40;99.90
37446;DHT22;23307;51.136;14.942;2023-12-28T02:26:43;7.40;99.90
37446;DHT22;23307;51.136;14.942;2023-12-28T02:29:08;7.40;99.90
37446;DHT22;23307;51.136;14.942;2023-12-28T02:31:39;7.40;99.90
37446;DHT22;23307;51.136;14.942;2023-12-28T02:34:12;7.40;99.90
37446;DHT22;23307;51.136;14.942;2023-12-28T02:36:56;7.30;99.90
37446;DHT22;23307;51.136;14.942;2023-12-28T02:39:22;7.30;99.90
37446;DHT22;23307;51.136;14.942;2023-12-28T02:41:48;7.30;99.90
37446;DHT22;23307;51.136;14.942;2023-12-28T02:44:14;7.30;99.90
37446;DHT22;23307;51.136;14.942;2023-12-28T02:46:40;7.30;99.90
37446;DHT22;23307;51.136;14.942;2023-12-28T02:49:06;7.30;99.90
37446;DHT22;23307;51.136;14.942;2023-12-28T02:51:31;7.30;99.90
37446;DHT22;23307;51.136;14.942;2023-12-28T02:53:57;7.30;99.90
37446;DHT22;23307;51.136;14.942;2023-12-28T02:56:22;7.30;99.90
37446;DHT22;23307;51.136;14.942;2023-12-28T02:58:47;7.30;99.90
37446;DHT22;23307;51.136;14.942;2023-12-28T03:01:13;7.30;99.90
37446;DHT22;23307;51.136;14.942;2023-12-28T03:03:38;7.30;99.90
37446;DHT22;23307;51.136;14.942;2023-12-28T03:06:04;7.40;99.90
37446;DHT22;23307;51.136;14.942;2023-12-28T03:08:30;7.40;99.90
37446;DHT22;23307;51.136;14.942;2023-12-28T03:10:55;7.40;99.90
37446;DHT22;23307;51.136;14.942;2023-12-28T03:13:21;7.50;99.90
37446;DHT22;23307;51.136;14.942;2023-12-28T03:15:47;7.50;99.90
37446;DHT22;23307;51.136;14.942;2023-12-28T03:18:15;7.50;99.90
37446;DHT22;23307;51.136;14.942;2023-12-28T03:20:41;7.50;99.90
37446;DHT22;23307;51.136;14.942;2023-12-28T03:23:06;7.50;99.90
37446;DHT22;23307;51.136;14.942;2023-12-28T03:25:32;7.50;99.90
37446;DHT22;23307;51.136;14.942;2023-12-28T03:27:57;7.50;99.90
37446;DHT22;23307;51.136;14.942;2023-12-28T03:30:23;7.50;99.90
37446;DHT22;23307;51.136;14.942;2023-12-28T03:32:48;7.50;99.90
37446;DHT22;23307;51.136;14.942;2023-12-28T03:35:13;7.50;99.90
37446;DHT22;23307;51.136;14.942;2023-12-28T03:37:39;7.50;99.90
37446;DHT22;23307;51.136;14.942;2023-12-28T03:40:05;7.50;99.90
37446;DHT22;23307;51.136;14.942;2023-12-28T03:42:31;7.50;99.90
37446;DHT22;23307;51.136;14.942;2023-12-28T03:44:56;7.50;99.90
37446;DHT22;23307;51.136;14.942;2023-12-28T03:47:22;7.50;99.90
37446;DHT22;23307;51.136;14.942;2023-12-28T03:49:49;7.50;99.90
37446;DHT22;23307;51.136;14.942;2023-12-28T03:52:14;7.40;99.90
37446;DHT22;23307;51.136;14.942;2023-12-28T03:54:40;7.40;99.90
37446;DHT22;23307;51.136;14.942;2023-12-28T03:57:05;7.40;99.90
37446;DHT22;23307;51.136;14.942;2023-12-28T03:59:31;7.40;99.90
37446;DHT22;23307;51.136;14.942;2023-12-28T04:01:56;7.40;99.90
37446;DHT22;23307;51.136;14.942;2023-12-28T04:04:22;7.40;99.90
37446;DHT22;23307;51.136;14.942;2023-12-28T04:06:47;7.30;99.90
37446;DHT22;23307;51.136;14.942;2023-12-28T04:09:13;7.30;99.90
37446;DHT22;23307;51.136;14.942;2023-12-28T04:11:38;7.30;99.90
37446;DHT22;23307;51.136;14.942;2023-12-28T04:14:04;7.30;99.90
37446;DHT22;23307;51.136;14.942;2023-12-28T04:16:29;7.40;99.90
37446;DHT22;23307;51.136;14.942;2023-12-28T04:18:55;7.30;99.90
37446;DHT22;23307;51.136;14.942;2023-12-28T04:21:20;7.30;99.90
37446;DHT22;23307;51.136;14.942;2023-12-28T04:23:47;7.30;99.90
37446;DHT22;23307;51.136;14.942;2023-12-28T04:26:12;7.40;99.90
37446;DHT22;23307;51.136;14.942;2023-12-28T04:28:38;7.40;99.90
37446;DHT22;23307;51.136;14.942;2023-12-28T04:31:04;7.40;99.90
37446;DHT22;23307;51.136;14.942;2023-12-28T04:33:30;7.40;99.90
37446;DHT22;23307;51.136;14.942;2023-12-28T04:35:56;7.40;99.90
37446;DHT22;23307;51.136;14.942;2023-12-28T04:38:22;7.40;99.90
37446;DHT22;23307;51.136;14.942;2023-12-28T04:40:47;7.40;99.90
37446;DHT22;23307;51.136;14.942;2023-12-28T04:43:13;7.40;99.90
37446;DHT22;23307;51.136;14.942;2023-12-28T04:45:38;7.30;99.90
37446;DHT22;23307;51.136;14.942;2023-12-28T04:48:04;7.30;99.90
37446;DHT22;23307;51.136;14.942;2023-12-28T04:50:30;7.40;99.90
37446;DHT22;23307;51.136;14.942;2023-12-28T04:52:55;7.40;99.90
37446;DHT22;23307;51.136;14.942;2023-12-28T04:55:21;7.40;99.90
37446;DHT22;23307;51.136;14.942;2023-12-28T04:57:46;7.40;99.90
37446;DHT22;23307;51.136;14.942;2023-12-28T05:00:12;7.40;99.90
37446;DHT22;23307;51.136;14.942;2023-12-28T05:02:37;7.40;99.90
37446;DHT22;23307;51.136;14.942;2023-12-28T05:05:03;7.40;99.90
37446;DHT22;23307;51.136;14.942;2023-12-28T05:07:29;7.40;99.90
37446;DHT22;23307;51.136;14.942;2023-12-28T05:09:54;7.40;99.90
37446;DHT22;23307;51.136;14.942;2023-12-28T05:12:20;7.40;99.90
37446;DHT22;23307;51.136;14.942;2023-12-28T05:14:45;7.40;99.90
37446;DHT22;23307;51.136;14.942;2023-12-28T05:17:11;7.30;99.90
37446;DHT22;23307;51.136;14.942;2023-12-28T05:19:36;7.30;99.90
37446;DHT22;23307;51.136;14.942;2023-12-28T05:22:02;7.30;99.90
37446;DHT22;23307;51.136;14.942;2023-12-28T05:24:29;7.30;99.90
37446;DHT22;23307;51.136;14.942;2023-12-28T05:26:55;7.30;99.90
37446;DHT22;23307;51.136;14.942;2023-12-28T05:29:20;7.30;99.90
37446;DHT22;23307;51.136;14.942;2023-12-28T05:31:46;7.30;99.90
37446;DHT22;23307;51.136;14.942;2023-12-28T05:34:11;7.30;99.90
37446;DHT22;23307;51.136;14.942;2023-12-28T05:36:37;7.30;99.90
37446;DHT22;23307;51.136;14.942;2023-12-28T05:39:02;7.30;99.90
37446;DHT22;23307;51.136;14.942;2023-12-28T05:41:28;7.30;99.90
37446;DHT22;23307;51.136;14.942;2023-12-28T05:43:53;7.30;99.90
37446;DHT22;23307;51.136;14.942;2023-12-28T05:46:19;7.30;99.90
37446;DHT22;23307;51.136;14.942;2023-12-28T05:48:44;7.30;99.90
37446;DHT22;23307;51.136;14.942;2023-12-28T05:51:10;7.30;99.90
37446;DHT22;23307;51.136;14.942;2023-12-28T05:53:36;7.30;99.90
37446;DHT22;23307;51.136;14.942;2023-12-28T05:56:01;7.30;99.90
37446;DHT22;23307;51.136;14.942;2023-12-28T05:58:29;7.30;99.90
37446;DHT22;23307;51.136;14.942;2023-12-28T06:00:54;7.30;99.90
37446;DHT22;23307;51.136;14.942;2023-12-28T06:03:20;7.30;99.90
37446;DHT22;23307;51.136;14.942;2023-12-28T06:05:46;7.30;99.90
37446;DHT22;23307;51.136;14.942;2023-12-28T06:08:11;7.30;99.90
37446;DHT22;23307;51.136;14.942;2023-12-28T06:10:37;7.30;99.90
37446;DHT22;23307;51.136;14.942;2023-12-28T06:13:03;7.30;99.90
37446;DHT22;23307;51.136;14.942;2023-12-28T06:15:28;7.30;99.90
37446;DHT22;23307;51.136;14.942;2023-12-28T06:17:54;7.30;99.90
37446;DHT22;23307;51.136;14.942;2023-12-28T06:20:19;7.30;99.90
37446;DHT22;23307;51.136;14.942;2023-12-28T06:22:45;7.30;99.90
37446;DHT22;23307;51.136;14.942;2023-12-28T06:25:14;7.30;99.90
37446;DHT22;23307;51.136;14.942;2023-12-28T06:27:39;7.30;99.90
37446;DHT22;23307;51.136;14.942;2023-12-28T06:30:05;7.30;99.90
37446;DHT22;23307;51.136;14.942;2023-12-28T06:32:31;7.30;99.90
37446;DHT22;23307;51.136;14.942;2023-12-28T06:34:56;7.30;99.90
37446;DHT22;23307;51.136;14.942;2023-12-28T06:37:22;7.40;99.90
37446;DHT22;23307;51.136;14.942;2023-12-28T06:39:47;7.40;99.90
37446;DHT22;23307;51.136;14.942;2023-12-28T06:42:13;7.40;99.90
37446;DHT22;23307;51.136;14.942;2023-12-28T06:44:39;7.50;99.90
37446;DHT22;23307;51.136;14.942;2023-12-28T06:47:05;7.50;99.90
37446;DHT22;23307;51.136;14.942;2023-12-28T06:49:30;7.50;99.90
37446;DHT22;23307;51.136;14.942;2023-12-28T06:51:56;7.50;99.90
37446;DHT22;23307;51.136;14.942;2023-12-28T06:54:21;7.60;99.90
37446;DHT22;23307;51.136;14.942;2023-12-28T06:56:47;7.60;99.90
37446;DHT22;23307;51.136;14.942;2023-12-28T06:59:12;7.70;99.90
37446;DHT22;23307;51.136;14.942;2023-12-28T07:01:39;7.70;99.90
37446;DHT22;23307;51.136;14.942;2023-12-28T07:04:05;7.70;99.90
37446;DHT22;23307;51.136;14.942;2023-12-28T07:06:30;7.80;99.90
37446;DHT22;23307;51.136;14.942;2023-12-28T07:08:56;7.80;99.90
37446;DHT22;23307;51.136;14.942;2023-12-28T07:11:21;7.80;99.90
37446;DHT22;23307;51.136;14.942;2023-12-28T07:13:47;7.80;99.90
37446;DHT22;23307;51.136;14.942;2023-12-28T07:16:13;7.80;99.90
37446;DHT22;23307;51.136;14.942;2023-12-28T07:18:38;7.90;99.90
37446;DHT22;23307;51.136;14.942;2023-12-28T07:21:04;7.90;99.90
37446;DHT22;23307;51.136;14.942;2023-12-28T07:23:31;7.90;99.90
37446;DHT22;23307;51.136;14.942;2023-12-28T07:25:57;7.80;99.90
37446;DHT22;23307;51.136;14.942;2023-12-28T07:28:22;7.80;99.90
37446;DHT22;23307;51.136;14.942;2023-12-28T07:30:48;7.80;99.90
37446;DHT22;23307;51.136;14.942;2023-12-28T07:33:13;7.80;99.90
37446;DHT22;23307;51.136;14.942;2023-12-28T07:35:39;7.80;99.90
37446;DHT22;23307;51.136;14.942;2023-12-28T07:38:04;7.70;99.90
37446;DHT22;23307;51.136;14.942;2023-12-28T07:40:30;7.70;99.90
37446;DHT22;23307;51.136;14.942;2023-12-28T07:42:56;7.70;99.90
37446;DHT22;23307;51.136;14.942;2023-12-28T07:45:21;7.70;99.90
37446;DHT22;23307;51.136;14.942;2023-12-28T07:47:49;7.70;99.90
37446;DHT22;23307;51.136;14.942;2023-12-28T07:50:16;7.60;99.90
37446;DHT22;23307;51.136;14.942;2023-12-28T07:52:42;7.60;99.90
37446;DHT22;23307;51.136;14.942;2023-12-28T07:55:08;7.60;99.90
37446;DHT22;23307;51.136;14.942;2023-12-28T07:57:34;7.60;99.90
37446;DHT22;23307;51.136;14.942;2023-12-28T08:00:00;7.60;99.90
37446;DHT22;23307;51.136;14.942;2023-12-28T08:02:25;7.60;99.90
37446;DHT22;23307;51.136;14.942;2023-12-28T08:04:51;7.60;99.90
37446;DHT22;23307;51.136;14.942;2023-12-28T08:07:16;7.60;99.90
37446;DHT22;23307;51.136;14.942;2023-12-28T08:09:42;7.60;99.90
37446;DHT22;23307;51.136;14.942;2023-12-28T08:12:07;7.60;99.90
37446;DHT22;23307;51.136;14.942;2023-12-28T08:14:33;7.60;99.90
37446;DHT22;23307;51.136;14.942;2023-12-28T08:16:58;7.60;99.90
37446;DHT22;23307;51.136;14.942;2023-12-28T08:19:24;7.50;99.90
37446;DHT22;23307;51.136;14.942;2023-12-28T08:21:49;7.50;99.90
37446;DHT22;23307;51.136;14.942;2023-12-28T08:24:16;7.50;99.90
37446;DHT22;23307;51.136;14.942;2023-12-28T08:26:41;7.50;99.90
37446;DHT22;23307;51.136;14.942;2023-12-28T08:29:07;7.50;99.90
37446;DHT22;23307;51.136;14.942;2023-12-28T08:31:32;7.50;99.90
37446;DHT22;23307;51.136;14.942;2023-12-28T08:33:58;7.40;99.90
37446;DHT22;23307;51.136;14.942;2023-12-28T08:36:23;7.40;99.90
37446;DHT22;23307;51.136;14.942;2023-12-28T08:38:49;7.40;99.90
37446;DHT22;23307;51.136;14.942;2023-12-28T08:41:21;7.40;99.90
37446;DHT22;23307;51.136;14.942;2023-12-28T08:43:49;7.40;99.90
37446;DHT22;23307;51.136;14.942;2023-12-28T08:46:15;7.40;99.90
37446;DHT22;23307;51.136;14.942;2023-12-28T08:48:41;7.30;99.90
37446;DHT22;23307;51.136;14.942;2023-12-28T08:51:09;7.40;99.90
37446;DHT22;23307;51.136;14.942;2023-12-28T08:53:34;7.30;99.90
37446;DHT22;23307;51.136;14.942;2023-12-28T08:56:00;7.30;99.90
37446;DHT22;23307;51.136;14.942;2023-12-28T08:58:25;7.30;99.90
37446;DHT22;23307;51.136;14.942;2023-12-28T09:00:51;7.30;99.90
37446;DHT22;23307;51.136;14.942;2023-12-28T09:03:16;7.30;99.90
37446;DHT22;23307;51.136;14.942;2023-12-28T09:05:42;7.40;99.90
37446;DHT22;23307;51.136;14.942;2023-12-28T09:08:08;7.40;99.90
37446;DHT22;23307;51.136;14.942;2023-12-28T09:10:33;7.40;99.90
37446;DHT22;23307;51.136;14.942;2023-12-28T09:12:59;7.40;99.90
37446;DHT22;23307;51.136;14.942;2023-12-28T09:15:25;7.40;99.90
37446;DHT22;23307;51.136;14.942;2023-12-28T09:17:50;7.40;99.90
37446;DHT22;23307;51.136;14.942;2023-12-28T09:20:16;7.40;99.90
37446;DHT22;23307;51.136;14.942;2023-12-28T09:22:41;7.50;99.90
37446;DHT22;23307;51.136;14.942;2023-12-28T09:25:07;7.50;99.90
37446;DHT22;23307;51.136;14.942;2023-12-28T09:27:33;7.50;99.90
37446;DHT22;23307;51.136;14.942;2023-12-28T09:29:58;7.50;99.90
37446;DHT22;23307;51.136;14.942;2023-12-28T09:32:24;7.50;99.90
37446;DHT22;23307;51.136;14.942;2023-12-28T09:34:49;7.50;99.90
37446;DHT22;23307;51.136;14.942;2023-12-28T09:37:15;7.50;99.90
37446;DHT22;23307;51.136;14.942;2023-12-28T09:39:40;7.50;99.90
37446;DHT22;23307;51.136;14.942;2023-12-28T09:42:14;7.50;99.90
37446;DHT22;23307;51.136;14.942;2023-12-28T09:44:43;7.50;99.90
37446;DHT22;23307;51.136;14.942;2023-12-28T09:47:10;7.50;99.90
37446;DHT22;23307;51.136;14.942;2023-12-28T09:49:38;7.60;99.90
37446;DHT22;23307;51.136;14.942;2023-12-28T09:52:05;7.60;99.90
37446;DHT22;23307;51.136;14.942;2023-12-28T09:54:31;7.60;99.90
37446;DHT22;23307;51.136;14.942;2023-12-28T09:56:56;7.60;99.90
37446;DHT22;23307;51.136;14.942;2023-12-28T09:59:23;7.60;99.90
37446;DHT22;23307;51.136;14.942;2023-12-28T10:01:49;7.60;99.90
37446;DHT22;23307;51.136;14.942;2023-12-28T10:04:16;7.60;99.90
37446;DHT22;23307;51.136;14.942;2023-12-28T10:06:41;7.60;99.90
37446;DHT22;23307;51.136;14.942;2023-12-28T10:09:07;7.70;99.90
37446;DHT22;23307;51.136;14.942;2023-12-28T10:11:33;7.70;99.90
37446;DHT22;23307;51.136;14.942;2023-12-28T10:13:59;7.70;99.90
37446;DHT22;23307;51.136;14.942;2023-12-28T10:16:25;7.70;99.90
37446;DHT22;23307;51.136;14.942;2023-12-28T10:18:51;7.80;99.90
37446;DHT22;23307;51.136;14.942;2023-12-28T10:21:16;7.80;99.90
37446;DHT22;23307;51.136;14.942;2023-12-28T10:23:42;7.80;99.90
37446;DHT22;23307;51.136;14.942;2023-12-28T10:26:08;7.90;99.90
37446;DHT22;23307;51.136;14.942;2023-12-28T10:28:35;7.90;99.90
37446;DHT22;23307;51.136;14.942;2023-12-28T10:31:03;8.00;99.90
37446;DHT22;23307;51.136;14.942;2023-12-28T10:33:34;8.00;99.90
37446;DHT22;23307;51.136;14.942;2023-12-28T10:36:07;8.10;99.90
37446;DHT22;23307;51.136;14.942;2023-12-28T10:38:37;8.10;99.90
37446;DHT22;23307;51.136;14.942;2023-12-28T10:41:08;8.10;99.90
37446;DHT22;23307;51.136;14.942;2023-12-28T10:43:52;8.10;99.90
37446;DHT22;23307;51.136;14.942;2023-12-28T10:46:27;8.10;99.90
37446;DHT22;23307;51.136;14.942;2023-12-28T10:48:57;8.10;99.90
37446;DHT22;23307;51.136;14.942;2023-12-28T10:51:24;8.10;99.90
37446;DHT22;23307;51.136;14.942;2023-12-28T10:57:06;8.10;99.90
37446;DHT22;23307;51.136;14.942;2023-12-28T10:59:50;8.10;99.90
37446;DHT22;23307;51.136;14.942;2023-12-28T11:02:21;8.10;99.90
37446;DHT22;23307;51.136;14.942;2023-12-28T11:04:50;8.20;99.90
37446;DHT22;23307;51.136;14.942;2023-12-28T11:07:17;8.20;99.90
37446;DHT22;23307;51.136;14.942;2023-12-28T11:09:44;8.20;99.90
37446;DHT22;23307;51.136;14.942;2023-12-28T11:12:10;8.20;99.90
37446;DHT22;23307;51.136;14.942;2023-12-28T11:14:39;8.30;99.90
37446;DHT22;23307;51.136;14.942;2023-12-28T11:17:05;8.30;99.90
37446;DHT22;23307;51.136;14.942;2023-12-28T11:19:32;8.30;99.90
37446;DHT22;23307;51.136;14.942;2023-12-28T11:21:59;8.40;99.90
37446;DHT22;23307;51.136;14.942;2023-12-28T11:24:27;8.40;99.90
37446;DHT22;23307;51.136;14.942;2023-12-28T11:26:53;8.40;99.90
37446;DHT22;23307;51.136;14.942;2023-12-28T11:29:20;8.40;99.90
37446;DHT22;23307;51.136;14.942;2023-12-28T11:34:18;8.50;99.90
37446;DHT22;23307;51.136;14.942;2023-12-28T11:36:46;8.50;99.90
37446;DHT22;23307;51.136;14.942;2023-12-28T11:39:20;8.60;99.90
37446;DHT22;23307;51.136;14.942;2023-12-28T11:41:45;8.60;99.90
37446;DHT22;23307;51.136;14.942;2023-12-28T11:44:11;8.60;99.90
37446;DHT22;23307;51.136;14.942;2023-12-28T11:46:36;8.60;99.90
37446;DHT22;23307;51.136;14.942;2023-12-28T11:49:06;8.60;99.90
37446;DHT22;23307;51.136;14.942;2023-12-28T11:51:37;8.70;99.90
37446;DHT22;23307;51.136;14.942;2023-12-28T11:54:04;8.70;99.90
37446;DHT22;23307;51.136;14.942;2023-12-28T11:56:30;8.70;99.90
37446;DHT22;23307;51.136;14.942;2023-12-28T11:58:56;8.70;99.90
37446;DHT22;23307;51.136;14.942;2023-12-28T12:01:21;8.70;99.90
37446;DHT22;23307;51.136;14.942;2023-12-28T12:03:47;8.70;99.90
37446;DHT22;23307;51.136;14.942;2023-12-28T12:06:14;8.70;99.90
37446;DHT22;23307;51.136;14.942;2023-12-28T12:08:39;8.70;99.90
37446;DHT22;23307;51.136;14.942;2023-12-28T12:11:06;8.80;99.90
37446;DHT22;23307;51.136;14.942;2023-12-28T12:13:32;8.80;99.90
37446;DHT22;23307;51.136;14.942;2023-12-28T12:15:58;8.90;99.90
37446;DHT22;23307;51.136;14.942;2023-12-28T12:18:25;8.90;99.90
37446;DHT22;23307;51.136;14.942;2023-12-28T12:20:50;8.90;99.90
37446;DHT22;23307;51.136;14.942;2023-12-28T12:23:16;9.00;99.90
37446;DHT22;23307;51.136;14.942;2023-12-28T12:25:41;9.00;99.90
37446;DHT22;23307;51.136;14.942;2023-12-28T12:28:07;9.00;99.90
37446;DHT22;23307;51.136;14.942;2023-12-28T12:30:34;9.10;99.90
37446;DHT22;23307;51.136;14.942;2023-12-28T12:32:59;9.10;99.90
37446;DHT22;23307;51.136;14.942;2023-12-28T12:35:25;9.10;99.90
37446;DHT22;23307;51.136;14.942;2023-12-28T12:37:51;9.10;99.90
37446;DHT22;23307;51.136;14.942;2023-12-28T12:40:17;9.10;99.90
37446;DHT22;23307;51.136;14.942;2023-12-28T12:42:56;9.20;99.90
37446;DHT22;23307;51.136;14.942;2023-12-28T12:45:21;9.20;99.90
37446;DHT22;23307;51.136;14.942;2023-12-28T12:47:47;9.20;99.90
37446;DHT22;23307;51.136;14.942;2023-12-28T12:50:13;9.20;99.90
37446;DHT22;23307;51.136;14.942;2023-12-28T12:52:39;9.20;99.90
37446;DHT22;23307;51.136;14.942;2023-12-28T12:55:05;9.20;99.90
37446;DHT22;23307;51.136;14.942;2023-12-28T12:57:30;9.30;99.90
37446;DHT22;23307;51.136;14.942;2023-12-28T12:59:56;9.30;99.90
37446;DHT22;23307;51.136;14.942;2023-12-28T13:02:23;9.30;99.90
37446;DHT22;23307;51.136;14.942;2023-12-28T13:04:51;9.30;99.90
37446;DHT22;23307;51.136;14.942;2023-12-28T13:07:17;9.30;99.90
37446;DHT22;23307;51.136;14.942;2023-12-28T13:09:43;9.40;99.90
37446;DHT22;23307;51.136;14.942;2023-12-28T13:12:08;9.40;99.90
37446;DHT22;23307;51.136;14.942;2023-12-28T13:14:34;9.30;99.90
37446;DHT22;23307;51.136;14.942;2023-12-28T13:16:59;9.40;99.90
37446;DHT22;23307;51.136;14.942;2023-12-28T13:19:25;9.40;99.90
37446;DHT22;23307;51.136;14.942;2023-12-28T13:21:50;9.40;99.90
37446;DHT22;23307;51.136;14.942;2023-12-28T13:24:16;9.40;99.90
37446;DHT22;23307;51.136;14.942;2023-12-28T13:26:41;9.40;99.90
37446;DHT22;23307;51.136;14.942;2023-12-28T13:29:07;9.40;99.90
37446;DHT22;23307;51.136;14.942;2023-12-28T13:31:32;9.40;99.90
37446;DHT22;23307;51.136;14.942;2023-12-28T13:33:58;9.30;99.90
37446;DHT22;23307;51.136;14.942;2023-12-28T13:36:24;9.30;99.90
37446;DHT22;23307;51.136;14.942;2023-12-28T13:38:49;9.30;99.90
37446;DHT22;23307;51.136;14.942;2023-12-28T13:41:15;9.30;99.90
37446;DHT22;23307;51.136;14.942;2023-12-28T13:43:40;9.30;99.90
37446;DHT22;23307;51.136;14.942;2023-12-28T13:46:06;9.30;99.90
37446;DHT22;23307;51.136;14.942;2023-12-28T13:48:31;9.30;99.90
37446;DHT22;23307;51.136;14.942;2023-12-28T13:50:57;9.30;99.90
37446;DHT22;23307;51.136;14.942;2023-12-28T13:53:22;9.30;99.90
37446;DHT22;23307;51.136;14.942;2023-12-28T13:55:47;9.30;99.90
37446;DHT22;23307;51.136;14.942;2023-12-28T13:58:13;9.30;99.90
37446;DHT22;23307;51.136;14.942;2023-12-28T14:00:40;9.30;99.90
37446;DHT22;23307;51.136;14.942;2023-12-28T14:03:05;9.30;99.90
37446;DHT22;23307;51.136;14.942;2023-12-28T14:05:31;9.30;99.90
37446;DHT22;23307;51.136;14.942;2023-12-28T14:07:57;9.20;99.90
37446;DHT22;23307;51.136;14.942;2023-12-28T14:10:22;9.20;99.90
37446;DHT22;23307;51.136;14.942;2023-12-28T14:12:48;9.20;99.90
37446;DHT22;23307;51.136;14.942;2023-12-28T14:15:14;9.10;99.90
37446;DHT22;23307;51.136;14.942;2023-12-28T14:17:41;9.10;99.90
37446;DHT22;23307;51.136;14.942;2023-12-28T14:20:07;9.10;99.90
37446;DHT22;23307;51.136;14.942;2023-12-28T14:22:37;9.10;99.90
37446;DHT22;23307;51.136;14.942;2023-12-28T14:25:03;9.00;99.90
37446;DHT22;23307;51.136;14.942;2023-12-28T14:27:29;9.00;99.90
37446;DHT22;23307;51.136;14.942;2023-12-28T14:29:55;9.00;99.90
37446;DHT22;23307;51.136;14.942;2023-12-28T14:32:21;9.00;99.90
37446;DHT22;23307;51.136;14.942;2023-12-28T14:34:47;8.90;99.90
37446;DHT22;23307;51.136;14.942;2023-12-28T14:37:12;8.90;99.90
37446;DHT22;23307;51.136;14.942;2023-12-28T14:39:38;8.90;99.90
37446;DHT22;23307;51.136;14.942;2023-12-28T14:42:04;8.90;99.90
37446;DHT22;23307;51.136;14.942;2023-12-28T14:44:29;8.80;99.90
37446;DHT22;23307;51.136;14.942;2023-12-28T14:46:55;8.80;99.90
37446;DHT22;23307;51.136;14.942;2023-12-28T14:49:20;8.80;99.90
37446;DHT22;23307;51.136;14.942;2023-12-28T14:51:45;8.80;99.90
37446;DHT22;23307;51.136;14.942;2023-12-28T14:54:11;8.70;99.90
37446;DHT22;23307;51.136;14.942;2023-12-28T14:56:37;8.60;99.90
37446;DHT22;23307;51.136;14.942;2023-12-28T14:59:02;8.60;99.90
37446;DHT22;23307;51.136;14.942;2023-12-28T15:01:27;8.60;99.90
37446;DHT22;23307;51.136;14.942;2023-12-28T15:03:53;8.50;99.90
37446;DHT22;23307;51.136;14.942;2023-12-28T15:06:18;8.40;99.90
37446;DHT22;23307;51.136;14.942;2023-12-28T15:08:44;8.40;99.90
37446;DHT22;23307;51.136;14.942;2023-12-28T15:11:09;8.40;99.90
37446;DHT22;23307;51.136;14.942;2023-12-28T15:13:39;8.40;99.90
37446;DHT22;23307;51.136;14.942;2023-12-28T15:16:05;8.40;99.90
37446;DHT22;23307;51.136;14.942;2023-12-28T15:18:32;8.30;99.90
37446;DHT22;23307;51.136;14.942;2023-12-28T15:20:57;8.30;99.90
37446;DHT22;23307;51.136;14.942;2023-12-28T15:23:23;8.30;99.90
37446;DHT22;23307;51.136;14.942;2023-12-28T15:25:49;8.30;99.90
37446;DHT22;23307;51.136;14.942;2023-12-28T15:28:15;8.30;99.90